Forside
METAR-TAF:

METAR-TAF

Lufthavne :

Caen, Frankrig

Breddekreds: 49-11N, længdekreds: 000-27W, højde: 78 m

Aktuelle vejr

Denne rapport blev lavet for 21 minutter siden, kl. 14:00 UTC
Vind 14 kt fra nordøst, varierende mellem nord og østnordøst
Temperatur 9°C
Fugtighed 57%
Tryk 1026 hPa
Sigt 10 km eller mere
Brudte skyer i en højde af 4500 ft

METAR: LFRK 311400Z AUTO 04014KT 010V070 9999 BKN045 09/01 Q1026

Tid: 16:21 (14:21 UTC)

Vejrudsigter

Denne rapport blev lavet for 6 timer og 21 minutter siden, kl. 08:00 UTC
Foreløbig gælder fra 31 på 09 UTC til 31 på 18 UTC
Vind 12 kt fra østnordøst
Sigt 10 km eller mere
ingen skyer under 1500m og ingen cumulonimbus
Midlertidig
fra 31 på 09 UTC til 31 på 11 UTC
Brudte skyer i en højde af 1000 ft
Midlertidig
fra 31 på 13 UTC til 31 på 18 UTC
Vind 15 kt fra nordøst med vindstød på up til 28 kt

TAF: LFRK 310800Z 3109/3118 06012KT CAVOK TEMPO 3109/3111 BKN010 TEMPO 3113/3118 05015G28KT

Vejrobservationer og prognoser fra mere end 4000 lufthavne (METAR og TAF).

De gule og røde prikker repræsenterer de meteorologiske stationer.

Flyt musen over at se navnet på stationen.

Så klik over at se vejr observationer og prognoser.

At skifte det kort: Klik på de grønne knapper med et sort kors for at zoome ind; på den grønne knap med en bindestreg for at zoome ud; eller på de grønne pile for tilstødende kort.


METAR-TAF: